sensor_id;sensor_type;location;lat;lon;timestamp;P1;durP1;ratioP1;P2;durP2;ratioP2
65387;SDS011;51992;53.528;49.474;2024-02-23T00:00:34;4.95;;;1.40;;
65387;SDS011;51992;53.528;49.474;2024-02-23T00:03:00;1.50;;;1.40;;
65387;SDS011;51992;53.528;49.474;2024-02-23T00:05:26;0.30;;;0.30;;
65387;SDS011;51992;53.528;49.474;2024-02-23T00:07:52;0.52;;;0.52;;
65387;SDS011;51992;53.528;49.474;2024-02-23T00:10:18;2.38;;;1.15;;
65387;SDS011;51992;53.528;49.474;2024-02-23T00:12:44;1.85;;;1.25;;
65387;SDS011;51992;53.528;49.474;2024-02-23T00:15:10;1.40;;;1.30;;
65387;SDS011;51992;53.528;49.474;2024-02-23T00:17:36;2.50;;;1.00;;
65387;SDS011;51992;53.528;49.474;2024-02-23T00:20:04;8.05;;;1.13;;
65387;SDS011;51992;53.528;49.474;2024-02-23T00:22:30;1.10;;;1.05;;
65387;SDS011;51992;53.528;49.474;2024-02-23T00:24:58;0.95;;;0.80;;
65387;SDS011;51992;53.528;49.474;2024-02-23T00:27:24;2.30;;;1.75;;
65387;SDS011;51992;53.528;49.474;2024-02-23T00:29:50;1.92;;;1.08;;
65387;SDS011;51992;53.528;49.474;2024-02-23T00:32:16;0.73;;;0.73;;
65387;SDS011;51992;53.528;49.474;2024-02-23T00:34:42;1.10;;;1.08;;
65387;SDS011;51992;53.528;49.474;2024-02-23T00:37:08;3.85;;;1.10;;
65387;SDS011;51992;53.528;49.474;2024-02-23T00:39:34;1.23;;;1.13;;
65387;SDS011;51992;53.528;49.474;2024-02-23T00:42:00;1.65;;;0.75;;
65387;SDS011;51992;53.528;49.474;2024-02-23T00:44:26;1.05;;;0.90;;
65387;SDS011;51992;53.528;49.474;2024-02-23T00:46:52;1.00;;;0.90;;
65387;SDS011;51992;53.528;49.474;2024-02-23T00:49:18;2.25;;;1.05;;
65387;SDS011;51992;53.528;49.474;2024-02-23T00:51:47;1.08;;;1.08;;
65387;SDS011;51992;53.528;49.474;2024-02-23T00:54:13;1.48;;;1.05;;
65387;SDS011;51992;53.528;49.474;2024-02-23T00:56:39;1.00;;;0.93;;
65387;SDS011;51992;53.528;49.474;2024-02-23T00:59:05;0.98;;;0.98;;
65387;SDS011;51992;53.528;49.474;2024-02-23T01:01:31;3.17;;;1.67;;
65387;SDS011;51992;53.528;49.474;2024-02-23T01:03:57;3.00;;;1.25;;
65387;SDS011;51992;53.528;49.474;2024-02-23T01:06:23;1.02;;;0.88;;
65387;SDS011;51992;53.528;49.474;2024-02-23T01:08:50;0.90;;;0.90;;
65387;SDS011;51992;53.528;49.474;2024-02-23T01:11:17;1.40;;;1.30;;
65387;SDS011;51992;53.528;49.474;2024-02-23T01:13:43;0.70;;;0.65;;
65387;SDS011;51992;53.528;49.474;2024-02-23T01:16:09;1.73;;;0.45;;
65387;SDS011;51992;53.528;49.474;2024-02-23T01:18:35;1.02;;;1.02;;
65387;SDS011;51992;53.528;49.474;2024-02-23T01:21:01;1.02;;;0.93;;
65387;SDS011;51992;53.528;49.474;2024-02-23T01:23:26;4.32;;;0.88;;
65387;SDS011;51992;53.528;49.474;2024-02-23T01:25:52;1.13;;;1.02;;
65387;SDS011;51992;53.528;49.474;2024-02-23T01:28:19;1.15;;;1.10;;
65387;SDS011;51992;53.528;49.474;2024-02-23T01:30:45;1.55;;;1.38;;
65387;SDS011;51992;53.528;49.474;2024-02-23T01:33:11;1.23;;;1.08;;
65387;SDS011;51992;53.528;49.474;2024-02-23T01:35:36;0.90;;;0.90;;
65387;SDS011;51992;53.528;49.474;2024-02-23T01:38:02;0.75;;;0.73;;
65387;SDS011;51992;53.528;49.474;2024-02-23T01:40:28;0.55;;;0.55;;
65387;SDS011;51992;53.528;49.474;2024-02-23T01:43:04;1.05;;;0.88;;
65387;SDS011;51992;53.528;49.474;2024-02-23T01:45:30;1.15;;;1.10;;
65387;SDS011;51992;53.528;49.474;2024-02-23T01:47:57;1.08;;;1.05;;
65387;SDS011;51992;53.528;49.474;2024-02-23T01:50:23;0.98;;;0.90;;
65387;SDS011;51992;53.528;49.474;2024-02-23T01:52:49;1.17;;;1.10;;
65387;SDS011;51992;53.528;49.474;2024-02-23T01:55:18;1.05;;;1.05;;
65387;SDS011;51992;53.528;49.474;2024-02-23T01:57:45;2.08;;;1.15;;
65387;SDS011;51992;53.528;49.474;2024-02-23T02:00:11;1.15;;;1.00;;
65387;SDS011;51992;53.528;49.474;2024-02-23T02:02:39;1.35;;;1.25;;
65387;SDS011;51992;53.528;49.474;2024-02-23T02:05:05;1.23;;;1.13;;
65387;SDS011;51992;53.528;49.474;2024-02-23T02:07:32;2.05;;;1.85;;
65387;SDS011;51992;53.528;49.474;2024-02-23T02:09:59;1.48;;;1.38;;
65387;SDS011;51992;53.528;49.474;2024-02-23T02:12:28;1.52;;;1.33;;
65387;SDS011;51992;53.528;49.474;2024-02-23T02:14:54;3.40;;;1.65;;
65387;SDS011;51992;53.528;49.474;2024-02-23T02:17:21;2.83;;;2.58;;
65387;SDS011;51992;53.528;49.474;2024-02-23T02:19:47;2.65;;;2.45;;
65387;SDS011;51992;53.528;49.474;2024-02-23T02:22:13;4.90;;;3.00;;
65387;SDS011;51992;53.528;49.474;2024-02-23T02:24:39;1.48;;;1.38;;
65387;SDS011;51992;53.528;49.474;2024-02-23T02:27:08;2.63;;;2.10;;
65387;SDS011;51992;53.528;49.474;2024-02-23T02:29:35;7.25;;;2.47;;
65387;SDS011;51992;53.528;49.474;2024-02-23T02:32:00;1.75;;;1.65;;
65387;SDS011;51992;53.528;49.474;2024-02-23T02:34:26;1.50;;;1.40;;
65387;SDS011;51992;53.528;49.474;2024-02-23T02:36:54;2.63;;;2.42;;
65387;SDS011;51992;53.528;49.474;2024-02-23T02:39:20;6.25;;;2.17;;
65387;SDS011;51992;53.528;49.474;2024-02-23T02:41:47;5.32;;;2.15;;
65387;SDS011;51992;53.528;49.474;2024-02-23T02:44:14;3.00;;;1.73;;
65387;SDS011;51992;53.528;49.474;2024-02-23T02:46:40;2.58;;;2.38;;
65387;SDS011;51992;53.528;49.474;2024-02-23T02:49:06;9.50;;;2.63;;
65387;SDS011;51992;53.528;49.474;2024-02-23T02:51:32;1.92;;;1.83;;
65387;SDS011;51992;53.528;49.474;2024-02-23T02:53:58;2.15;;;1.45;;
65387;SDS011;51992;53.528;49.474;2024-02-23T02:56:24;2.42;;;1.52;;
65387;SDS011;51992;53.528;49.474;2024-02-23T02:58:50;3.90;;;1.45;;
65387;SDS011;51992;53.528;49.474;2024-02-23T03:01:16;9.30;;;1.75;;
65387;SDS011;51992;53.528;49.474;2024-02-23T03:03:42;1.55;;;1.45;;
65387;SDS011;51992;53.528;49.474;2024-02-23T03:06:08;2.38;;;1.98;;
65387;SDS011;51992;53.528;49.474;2024-02-23T03:08:34;1.25;;;0.95;;
65387;SDS011;51992;53.528;49.474;2024-02-23T03:11:00;1.52;;;1.20;;
65387;SDS011;51992;53.528;49.474;2024-02-23T03:13:26;2.10;;;1.23;;
65387;SDS011;51992;53.528;49.474;2024-02-23T03:15:52;1.40;;;1.27;;
65387;SDS011;51992;53.528;49.474;2024-02-23T03:18:17;2.70;;;1.90;;
65387;SDS011;51992;53.528;49.474;2024-02-23T03:20:43;1.50;;;1.40;;
65387;SDS011;51992;53.528;49.474;2024-02-23T03:23:10;2.10;;;1.52;;
65387;SDS011;51992;53.528;49.474;2024-02-23T03:25:36;0.98;;;0.88;;
65387;SDS011;51992;53.528;49.474;2024-02-23T03:28:01;1.55;;;1.33;;
65387;SDS011;51992;53.528;49.474;2024-02-23T03:30:28;1.83;;;1.10;;
65387;SDS011;51992;53.528;49.474;2024-02-23T03:32:53;1.88;;;1.30;;
65387;SDS011;51992;53.528;49.474;2024-02-23T03:35:19;10.00;;;1.67;;
65387;SDS011;51992;53.528;49.474;2024-02-23T03:37:45;3.25;;;2.05;;
65387;SDS011;51992;53.528;49.474;2024-02-23T03:40:11;2.05;;;1.10;;
65387;SDS011;51992;53.528;49.474;2024-02-23T03:42:38;2.65;;;1.30;;
65387;SDS011;51992;53.528;49.474;2024-02-23T03:45:04;2.25;;;1.80;;
65387;SDS011;51992;53.528;49.474;2024-02-23T03:47:30;1.80;;;1.60;;
65387;SDS011;51992;53.528;49.474;2024-02-23T03:49:56;3.20;;;2.05;;
65387;SDS011;51992;53.528;49.474;2024-02-23T03:52:22;1.80;;;1.70;;
65387;SDS011;51992;53.528;49.474;2024-02-23T03:54:48;3.85;;;2.05;;
65387;SDS011;51992;53.528;49.474;2024-02-23T03:57:14;3.40;;;1.73;;
65387;SDS011;51992;53.528;49.474;2024-02-23T03:59:50;2.53;;;1.80;;
65387;SDS011;51992;53.528;49.474;2024-02-23T04:02:16;2.72;;;1.95;;
65387;SDS011;51992;53.528;49.474;2024-02-23T04:04:42;1.52;;;1.42;;
65387;SDS011;51992;53.528;49.474;2024-02-23T04:07:08;2.05;;;1.23;;
65387;SDS011;51992;53.528;49.474;2024-02-23T04:09:34;1.55;;;1.30;;
65387;SDS011;51992;53.528;49.474;2024-02-23T04:12:00;1.02;;;1.00;;
65387;SDS011;51992;53.528;49.474;2024-02-23T04:14:26;8.85;;;1.33;;
65387;SDS011;51992;53.528;49.474;2024-02-23T04:16:52;1.02;;;1.00;;
65387;SDS011;51992;53.528;49.474;2024-02-23T04:19:18;2.50;;;1.30;;
65387;SDS011;51992;53.528;49.474;2024-02-23T04:21:44;2.05;;;1.63;;
65387;SDS011;51992;53.528;49.474;2024-02-23T04:24:10;6.00;;;2.67;;
65387;SDS011;51992;53.528;49.474;2024-02-23T04:26:36;9.25;;;2.60;;
65387;SDS011;51992;53.528;49.474;2024-02-23T04:29:02;10.85;;;4.95;;
65387;SDS011;51992;53.528;49.474;2024-02-23T04:31:28;9.90;;;5.20;;
65387;SDS011;51992;53.528;49.474;2024-02-23T04:33:54;9.82;;;6.80;;
65387;SDS011;51992;53.528;49.474;2024-02-23T04:36:20;4.40;;;3.35;;
65387;SDS011;51992;53.528;49.474;2024-02-23T04:38:48;2.33;;;1.88;;
65387;SDS011;51992;53.528;49.474;2024-02-23T04:41:15;3.58;;;1.92;;
65387;SDS011;51992;53.528;49.474;2024-02-23T04:43:44;2.58;;;2.08;;
65387;SDS011;51992;53.528;49.474;2024-02-23T04:46:10;2.58;;;1.80;;
65387;SDS011;51992;53.528;49.474;2024-02-23T04:48:38;4.35;;;2.58;;
65387;SDS011;51992;53.528;49.474;2024-02-23T04:51:04;2.20;;;1.90;;
65387;SDS011;51992;53.528;49.474;2024-02-23T04:53:30;5.47;;;2.25;;
65387;SDS011;51992;53.528;49.474;2024-02-23T04:55:56;3.78;;;1.73;;
65387;SDS011;51992;53.528;49.474;2024-02-23T04:58:22;3.78;;;2.03;;
65387;SDS011;51992;53.528;49.474;2024-02-23T05:00:47;1.95;;;1.80;;
65387;SDS011;51992;53.528;49.474;2024-02-23T05:03:13;2.05;;;1.88;;
65387;SDS011;51992;53.528;49.474;2024-02-23T05:05:41;2.55;;;2.35;;
65387;SDS011;51992;53.528;49.474;2024-02-23T05:08:07;2.97;;;2.70;;
65387;SDS011;51992;53.528;49.474;2024-02-23T05:10:33;3.40;;;2.47;;
65387;SDS011;51992;53.528;49.474;2024-02-23T05:12:59;5.15;;;3.50;;
65387;SDS011;51992;53.528;49.474;2024-02-23T05:15:25;3.85;;;2.65;;
65387;SDS011;51992;53.528;49.474;2024-02-23T05:17:51;3.92;;;2.17;;
65387;SDS011;51992;53.528;49.474;2024-02-23T05:20:17;3.03;;;2.35;;
65387;SDS011;51992;53.528;49.474;2024-02-23T05:22:43;2.40;;;2.20;;
65387;SDS011;51992;53.528;49.474;2024-02-23T05:25:09;4.03;;;2.35;;
65387;SDS011;51992;53.528;49.474;2024-02-23T05:27:35;2.00;;;1.80;;
65387;SDS011;51992;53.528;49.474;2024-02-23T05:30:00;4.80;;;2.90;;
65387;SDS011;51992;53.528;49.474;2024-02-23T05:32:27;2.85;;;2.08;;
65387;SDS011;51992;53.528;49.474;2024-02-23T05:34:53;6.82;;;1.75;;
65387;SDS011;51992;53.528;49.474;2024-02-23T05:37:19;2.97;;;2.03;;
65387;SDS011;51992;53.528;49.474;2024-02-23T05:39:46;3.05;;;1.98;;
65387;SDS011;51992;53.528;49.474;2024-02-23T05:42:12;9.07;;;2.30;;
65387;SDS011;51992;53.528;49.474;2024-02-23T05:44:38;2.50;;;1.67;;
65387;SDS011;51992;53.528;49.474;2024-02-23T05:47:05;1.65;;;1.50;;
65387;SDS011;51992;53.528;49.474;2024-02-23T05:49:31;3.80;;;1.55;;
65387;SDS011;51992;53.528;49.474;2024-02-23T05:51:57;1.30;;;1.00;;
65387;SDS011;51992;53.528;49.474;2024-02-23T05:54:23;3.17;;;1.77;;
65387;SDS011;51992;53.528;49.474;2024-02-23T05:56:49;2.78;;;2.00;;
65387;SDS011;51992;53.528;49.474;2024-02-23T05:59:15;1.02;;;0.73;;
65387;SDS011;51992;53.528;49.474;2024-02-23T06:01:41;2.65;;;2.15;;
65387;SDS011;51992;53.528;49.474;2024-02-23T06:04:07;5.70;;;2.67;;
65387;SDS011;51992;53.528;49.474;2024-02-23T06:06:33;1.48;;;1.35;;
65387;SDS011;51992;53.528;49.474;2024-02-23T06:08:59;0.77;;;0.77;;
65387;SDS011;51992;53.528;49.474;2024-02-23T06:11:26;1.02;;;1.02;;
65387;SDS011;51992;53.528;49.474;2024-02-23T06:13:52;1.20;;;1.10;;
65387;SDS011;51992;53.528;49.474;2024-02-23T06:16:18;2.83;;;2.00;;
65387;SDS011;51992;53.528;49.474;2024-02-23T06:18:43;1.40;;;1.30;;
65387;SDS011;51992;53.528;49.474;2024-02-23T06:21:16;1.42;;;1.02;;
65387;SDS011;51992;53.528;49.474;2024-02-23T06:23:43;5.65;;;2.47;;
65387;SDS011;51992;53.528;49.474;2024-02-23T06:26:09;2.90;;;2.08;;
65387;SDS011;51992;53.528;49.474;2024-02-23T06:28:36;2.17;;;1.35;;
65387;SDS011;51992;53.528;49.474;2024-02-23T06:31:05;1.60;;;1.50;;
65387;SDS011;51992;53.528;49.474;2024-02-23T06:33:31;1.42;;;1.33;;
65387;SDS011;51992;53.528;49.474;2024-02-23T06:35:57;1.30;;;1.20;;
65387;SDS011;51992;53.528;49.474;2024-02-23T06:38:23;1.88;;;0.77;;
65387;SDS011;51992;53.528;49.474;2024-02-23T06:40:49;2.65;;;1.52;;
65387;SDS011;51992;53.528;49.474;2024-02-23T06:43:15;1.60;;;1.50;;
65387;SDS011;51992;53.528;49.474;2024-02-23T06:45:41;1.15;;;1.02;;
65387;SDS011;51992;53.528;49.474;2024-02-23T06:48:07;1.30;;;1.20;;
65387;SDS011;51992;53.528;49.474;2024-02-23T06:50:33;0.80;;;0.80;;
65387;SDS011;51992;53.528;49.474;2024-02-23T06:52:59;1.63;;;0.82;;
65387;SDS011;51992;53.528;49.474;2024-02-23T06:55:25;1.92;;;1.17;;
65387;SDS011;51992;53.528;49.474;2024-02-23T06:57:51;0.80;;;0.80;;
65387;SDS011;51992;53.528;49.474;2024-02-23T07:00:17;1.27;;;0.55;;
65387;SDS011;51992;53.528;49.474;2024-02-23T07:02:43;1.05;;;0.98;;
65387;SDS011;51992;53.528;49.474;2024-02-23T07:05:10;2.53;;;0.60;;
65387;SDS011;51992;53.528;49.474;2024-02-23T07:07:36;0.30;;;0.30;;
65387;SDS011;51992;53.528;49.474;2024-02-23T07:10:02;1.25;;;0.80;;
65387;SDS011;51992;53.528;49.474;2024-02-23T07:12:28;1.10;;;1.00;;
65387;SDS011;51992;53.528;49.474;2024-02-23T07:14:55;1.38;;;1.27;;
65387;SDS011;51992;53.528;49.474;2024-02-23T07:17:21;0.28;;;0.28;;
65387;SDS011;51992;53.528;49.474;2024-02-23T07:19:47;2.75;;;0.85;;
65387;SDS011;51992;53.528;49.474;2024-02-23T07:22:13;1.60;;;1.17;;
65387;SDS011;51992;53.528;49.474;2024-02-23T07:24:39;1.23;;;0.85;;
65387;SDS011;51992;53.528;49.474;2024-02-23T07:27:06;0.40;;;0.40;;
65387;SDS011;51992;53.528;49.474;2024-02-23T07:29:32;0.95;;;0.88;;
65387;SDS011;51992;53.528;49.474;2024-02-23T07:31:58;0.52;;;0.52;;
65387;SDS011;51992;53.528;49.474;2024-02-23T07:34:24;0.68;;;0.68;;
65387;SDS011;51992;53.528;49.474;2024-02-23T07:36:53;3.38;;;0.68;;
65387;SDS011;51992;53.528;49.474;2024-02-23T07:39:20;0.68;;;0.68;;
65387;SDS011;51992;53.528;49.474;2024-02-23T07:41:46;1.05;;;1.00;;
65387;SDS011;51992;53.528;49.474;2024-02-23T07:44:12;0.65;;;0.63;;
65387;SDS011;51992;53.528;49.474;2024-02-23T07:46:38;0.77;;;0.40;;
65387;SDS011;51992;53.528;49.474;2024-02-23T07:49:04;0.70;;;0.70;;
65387;SDS011;51992;53.528;49.474;2024-02-23T07:51:30;0.63;;;0.63;;
65387;SDS011;51992;53.528;49.474;2024-02-23T07:53:56;0.88;;;0.68;;
65387;SDS011;51992;53.528;49.474;2024-02-23T07:56:22;3.15;;;0.70;;
65387;SDS011;51992;53.528;49.474;2024-02-23T07:58:48;1.85;;;0.65;;
65387;SDS011;51992;53.528;49.474;2024-02-23T08:01:14;0.82;;;0.50;;
65387;SDS011;51992;53.528;49.474;2024-02-23T08:03:40;1.30;;;1.20;;
65387;SDS011;51992;53.528;49.474;2024-02-23T08:06:06;0.60;;;0.60;;
65387;SDS011;51992;53.528;49.474;2024-02-23T08:08:32;1.10;;;0.98;;
65387;SDS011;51992;53.528;49.474;2024-02-23T08:11:01;0.20;;;0.20;;
65387;SDS011;51992;53.528;49.474;2024-02-23T08:13:28;0.57;;;0.57;;
65387;SDS011;51992;53.528;49.474;2024-02-23T08:15:59;0.13;;;0.13;;
65387;SDS011;51992;53.528;49.474;2024-02-23T08:18:25;0.10;;;0.10;;
65387;SDS011;51992;53.528;49.474;2024-02-23T08:20:52;0.90;;;0.90;;
65387;SDS011;51992;53.528;49.474;2024-02-23T08:23:18;0.90;;;0.57;;
65387;SDS011;51992;53.528;49.474;2024-02-23T08:25:48;4.47;;;0.63;;
65387;SDS011;51992;53.528;49.474;2024-02-23T08:28:14;1.35;;;0.52;;
65387;SDS011;51992;53.528;49.474;2024-02-23T08:30:40;0.57;;;0.57;;
65387;SDS011;51992;53.528;49.474;2024-02-23T08:33:06;1.55;;;0.68;;
65387;SDS011;51992;53.528;49.474;2024-02-23T08:35:35;3.78;;;0.40;;
65387;SDS011;51992;53.528;49.474;2024-02-23T08:38:01;0.68;;;0.68;;
65387;SDS011;51992;53.528;49.474;2024-02-23T08:40:27;1.92;;;0.88;;
65387;SDS011;51992;53.528;49.474;2024-02-23T08:42:53;0.45;;;0.45;;
65387;SDS011;51992;53.528;49.474;2024-02-23T08:45:19;3.13;;;0.77;;
65387;SDS011;51992;53.528;49.474;2024-02-23T08:47:45;1.23;;;1.10;;
65387;SDS011;51992;53.528;49.474;2024-02-23T08:50:11;3.28;;;0.93;;
65387;SDS011;51992;53.528;49.474;2024-02-23T08:52:37;5.57;;;3.22;;
65387;SDS011;51992;53.528;49.474;2024-02-23T08:55:03;5.03;;;4.38;;
65387;SDS011;51992;53.528;49.474;2024-02-23T08:57:29;1.35;;;0.63;;
65387;SDS011;51992;53.528;49.474;2024-02-23T08:59:55;1.77;;;1.60;;
65387;SDS011;51992;53.528;49.474;2024-02-23T09:02:24;3.38;;;2.67;;
65387;SDS011;51992;53.528;49.474;2024-02-23T09:04:52;1.08;;;0.98;;
65387;SDS011;51992;53.528;49.474;2024-02-23T09:07:18;1.73;;;0.68;;
65387;SDS011;51992;53.528;49.474;2024-02-23T09:09:47;1.30;;;0.47;;
65387;SDS011;51992;53.528;49.474;2024-02-23T09:12:14;0.20;;;0.20;;
65387;SDS011;51992;53.528;49.474;2024-02-23T09:14:42;0.35;;;0.35;;
65387;SDS011;51992;53.528;49.474;2024-02-23T09:17:09;0.70;;;0.70;;
65387;SDS011;51992;53.528;49.474;2024-02-23T09:19:35;0.28;;;0.28;;
65387;SDS011;51992;53.528;49.474;2024-02-23T09:22:02;0.90;;;0.90;;
65387;SDS011;51992;53.528;49.474;2024-02-23T09:24:28;0.63;;;0.57;;
65387;SDS011;51992;53.528;49.474;2024-02-23T09:26:54;0.30;;;0.30;;
65387;SDS011;51992;53.528;49.474;2024-02-23T09:29:20;0.75;;;0.75;;
65387;SDS011;51992;53.528;49.474;2024-02-23T09:31:47;0.13;;;0.13;;
65387;SDS011;51992;53.528;49.474;2024-02-23T09:34:13;0.77;;;0.73;;
65387;SDS011;51992;53.528;49.474;2024-02-23T09:36:39;0.88;;;0.88;;
65387;SDS011;51992;53.528;49.474;2024-02-23T09:39:05;0.50;;;0.50;;
65387;SDS011;51992;53.528;49.474;2024-02-23T09:41:31;0.10;;;0.10;;
65387;SDS011;51992;53.528;49.474;2024-02-23T09:43:58;1.30;;;0.90;;
65387;SDS011;51992;53.528;49.474;2024-02-23T09:46:24;0.03;;;0.03;;
65387;SDS011;51992;53.528;49.474;2024-02-23T09:48:51;0.55;;;0.55;;
65387;SDS011;51992;53.528;49.474;2024-02-23T09:51:17;0.35;;;0.35;;
65387;SDS011;51992;53.528;49.474;2024-02-23T09:53:43;1.27;;;0.82;;
65387;SDS011;51992;53.528;49.474;2024-02-23T09:56:09;0.40;;;0.40;;
65387;SDS011;51992;53.528;49.474;2024-02-23T09:58:36;1.10;;;0.68;;
65387;SDS011;51992;53.528;49.474;2024-02-23T10:01:03;0.70;;;0.70;;
65387;SDS011;51992;53.528;49.474;2024-02-23T10:03:29;0.30;;;0.25;;
65387;SDS011;51992;53.528;49.474;2024-02-23T10:05:59;0.10;;;0.10;;
65387;SDS011;51992;53.528;49.474;2024-02-23T10:08:27;0.17;;;0.17;;
65387;SDS011;51992;53.528;49.474;2024-02-23T10:10:54;1.17;;;0.95;;
65387;SDS011;51992;53.528;49.474;2024-02-23T10:13:20;1.23;;;0.77;;
65387;SDS011;51992;53.528;49.474;2024-02-23T10:15:47;1.58;;;0.98;;
65387;SDS011;51992;53.528;49.474;2024-02-23T10:18:13;1.10;;;0.60;;
65387;SDS011;51992;53.528;49.474;2024-02-23T10:20:39;0.82;;;0.80;;
65387;SDS011;51992;53.528;49.474;2024-02-23T10:23:05;2.65;;;2.45;;
65387;SDS011;51992;53.528;49.474;2024-02-23T10:25:35;0.82;;;0.82;;
65387;SDS011;51992;53.528;49.474;2024-02-23T10:28:01;0.10;;;0.10;;
65387;SDS011;51992;53.528;49.474;2024-02-23T10:30:27;4.32;;;1.25;;
65387;SDS011;51992;53.528;49.474;2024-02-23T10:32:56;0.65;;;0.65;;
65387;SDS011;51992;53.528;49.474;2024-02-23T10:35:23;0.98;;;0.63;;
65387;SDS011;51992;53.528;49.474;2024-02-23T10:37:49;0.32;;;0.32;;
65387;SDS011;51992;53.528;49.474;2024-02-23T10:40:16;0.85;;;0.85;;
65387;SDS011;51992;53.528;49.474;2024-02-23T10:42:43;0.80;;;0.77;;
65387;SDS011;51992;53.528;49.474;2024-02-23T10:45:19;0.27;;;0.27;;
65387;SDS011;51992;53.528;49.474;2024-02-23T10:47:45;1.65;;;0.82;;
65387;SDS011;51992;53.528;49.474;2024-02-23T10:50:13;0.57;;;0.50;;
65387;SDS011;51992;53.528;49.474;2024-02-23T10:52:42;1.13;;;1.00;;
65387;SDS011;51992;53.528;49.474;2024-02-23T10:55:08;0.30;;;0.30;;
65387;SDS011;51992;53.528;49.474;2024-02-23T10:57:34;0.77;;;0.45;;
65387;SDS011;51992;53.528;49.474;2024-02-23T11:00:00;0.40;;;0.40;;
65387;SDS011;51992;53.528;49.474;2024-02-23T11:02:27;0.85;;;0.65;;
65387;SDS011;51992;53.528;49.474;2024-02-23T11:04:55;0.40;;;0.32;;
65387;SDS011;51992;53.528;49.474;2024-02-23T11:07:22;2.63;;;0.85;;
65387;SDS011;51992;53.528;49.474;2024-02-23T11:09:52;0.50;;;0.35;;
65387;SDS011;51992;53.528;49.474;2024-02-23T11:12:30;0.30;;;0.30;;
65387;SDS011;51992;53.528;49.474;2024-02-23T11:14:59;0.35;;;0.35;;
65387;SDS011;51992;53.528;49.474;2024-02-23T11:17:26;1.38;;;0.70;;
65387;SDS011;51992;53.528;49.474;2024-02-23T11:19:53;1.17;;;0.63;;
65387;SDS011;51992;53.528;49.474;2024-02-23T11:22:53;0.85;;;0.75;;
65387;SDS011;51992;53.528;49.474;2024-02-23T11:25:12;0.52;;;0.43;;
65387;SDS011;51992;53.528;49.474;2024-02-23T11:27:38;0.55;;;0.55;;
65387;SDS011;51992;53.528;49.474;2024-02-23T11:30:08;0.65;;;0.65;;
65387;SDS011;51992;53.528;49.474;2024-02-23T11:32:39;0.90;;;0.90;;
65387;SDS011;51992;53.528;49.474;2024-02-23T11:35:06;0.88;;;0.22;;
65387;SDS011;51992;53.528;49.474;2024-02-23T11:37:32;1.40;;;0.80;;
65387;SDS011;51992;53.528;49.474;2024-02-23T11:39:59;0.85;;;0.57;;
65387;SDS011;51992;53.528;49.474;2024-02-23T11:42:27;0.68;;;0.50;;
65387;SDS011;51992;53.528;49.474;2024-02-23T11:44:53;0.13;;;0.13;;
65387;SDS011;51992;53.528;49.474;2024-02-23T11:47:21;1.48;;;0.57;;
65387;SDS011;51992;53.528;49.474;2024-02-23T11:49:47;0.20;;;0.20;;
65387;SDS011;51992;53.528;49.474;2024-02-23T11:52:13;0.30;;;0.30;;
65387;SDS011;51992;53.528;49.474;2024-02-23T11:54:39;0.38;;;0.35;;
65387;SDS011;51992;53.528;49.474;2024-02-23T11:57:05;0.65;;;0.63;;
65387;SDS011;51992;53.528;49.474;2024-02-23T11:59:32;17.15;;;1.67;;
65387;SDS011;51992;53.528;49.474;2024-02-23T12:01:58;0.17;;;0.17;;
65387;SDS011;51992;53.528;49.474;2024-02-23T12:04:26;1.95;;;0.50;;
65387;SDS011;51992;53.528;49.474;2024-02-23T12:06:52;0.63;;;0.63;;
65387;SDS011;51992;53.528;49.474;2024-02-23T12:09:18;0.47;;;0.45;;
65387;SDS011;51992;53.528;49.474;2024-02-23T12:11:45;0.80;;;0.65;;
65387;SDS011;51992;53.528;49.474;2024-02-23T12:14:11;0.93;;;0.52;;
65387;SDS011;51992;53.528;49.474;2024-02-23T12:16:37;0.30;;;0.30;;
65387;SDS011;51992;53.528;49.474;2024-02-23T12:19:07;1.30;;;0.65;;
65387;SDS011;51992;53.528;49.474;2024-02-23T12:21:36;2.42;;;0.93;;
65387;SDS011;51992;53.528;49.474;2024-02-23T12:24:05;0.73;;;0.73;;
65387;SDS011;51992;53.528;49.474;2024-02-23T12:26:34;0.32;;;0.32;;
65387;SDS011;51992;53.528;49.474;2024-02-23T12:29:01;1.27;;;1.15;;
65387;SDS011;51992;53.528;49.474;2024-02-23T12:31:28;0.77;;;0.77;;
65387;SDS011;51992;53.528;49.474;2024-02-23T12:33:54;0.40;;;0.40;;
65387;SDS011;51992;53.528;49.474;2024-02-23T12:36:22;1.00;;;0.85;;
65387;SDS011;51992;53.528;49.474;2024-02-23T12:38:49;1.10;;;0.63;;
65387;SDS011;51992;53.528;49.474;2024-02-23T12:41:15;1.08;;;0.90;;
65387;SDS011;51992;53.528;49.474;2024-02-23T12:43:41;0.65;;;0.65;;
65387;SDS011;51992;53.528;49.474;2024-02-23T12:46:07;0.25;;;0.25;;
65387;SDS011;51992;53.528;49.474;2024-02-23T12:48:34;1.80;;;0.68;;
65387;SDS011;51992;53.528;49.474;2024-02-23T12:51:00;0.52;;;0.52;;
65387;SDS011;51992;53.528;49.474;2024-02-23T12:53:31;1.27;;;0.85;;
65387;SDS011;51992;53.528;49.474;2024-02-23T12:56:04;0.57;;;0.57;;
65387;SDS011;51992;53.528;49.474;2024-02-23T12:58:31;0.40;;;0.40;;
65387;SDS011;51992;53.528;49.474;2024-02-23T13:00:57;0.63;;;0.57;;
65387;SDS011;51992;53.528;49.474;2024-02-23T13:03:26;0.25;;;0.25;;
65387;SDS011;51992;53.528;49.474;2024-02-23T13:05:55;1.00;;;0.57;;
65387;SDS011;51992;53.528;49.474;2024-02-23T13:08:22;0.40;;;0.40;;
65387;SDS011;51992;53.528;49.474;2024-02-23T13:10:48;0.70;;;0.70;;
65387;SDS011;51992;53.528;49.474;2024-02-23T13:13:15;0.70;;;0.70;;
65387;SDS011;51992;53.528;49.474;2024-02-23T13:15:41;0.52;;;0.52;;
65387;SDS011;51992;53.528;49.474;2024-02-23T13:18:07;0.38;;;0.38;;
65387;SDS011;51992;53.528;49.474;2024-02-23T13:20:33;0.10;;;0.10;;
65387;SDS011;51992;53.528;49.474;2024-02-23T13:22:59;0.93;;;0.93;;
65387;SDS011;51992;53.528;49.474;2024-02-23T13:25:25;1.63;;;0.50;;
65387;SDS011;51992;53.528;49.474;2024-02-23T13:27:51;2.08;;;1.38;;
65387;SDS011;51992;53.528;49.474;2024-02-23T13:30:18;0.70;;;0.70;;
65387;SDS011;51992;53.528;49.474;2024-02-23T13:32:44;0.73;;;0.73;;
65387;SDS011;51992;53.528;49.474;2024-02-23T13:35:10;0.52;;;0.52;;
65387;SDS011;51992;53.528;49.474;2024-02-23T13:37:36;0.55;;;0.55;;
65387;SDS011;51992;53.528;49.474;2024-02-23T13:40:02;0.68;;;0.68;;
65387;SDS011;51992;53.528;49.474;2024-02-23T13:42:31;0.50;;;0.50;;
65387;SDS011;51992;53.528;49.474;2024-02-23T13:44:57;1.38;;;0.63;;
65387;SDS011;51992;53.528;49.474;2024-02-23T13:47:23;1.05;;;0.68;;
65387;SDS011;51992;53.528;49.474;2024-02-23T13:49:49;2.00;;;0.80;;
65387;SDS011;51992;53.528;49.474;2024-02-23T13:52:15;1.00;;;0.70;;
65387;SDS011;51992;53.528;49.474;2024-02-23T13:54:41;1.05;;;0.98;;
65387;SDS011;51992;53.528;49.474;2024-02-23T13:57:08;0.77;;;0.77;;
65387;SDS011;51992;53.528;49.474;2024-02-23T13:59:34;2.45;;;1.73;;
65387;SDS011;51992;53.528;49.474;2024-02-23T14:02:00;0.70;;;0.70;;
65387;SDS011;51992;53.528;49.474;2024-02-23T14:04:26;0.55;;;0.55;;
65387;SDS011;51992;53.528;49.474;2024-02-23T14:06:52;1.95;;;1.05;;
65387;SDS011;51992;53.528;49.474;2024-02-23T14:09:18;0.57;;;0.57;;
65387;SDS011;51992;53.528;49.474;2024-02-23T14:11:44;0.55;;;0.55;;
65387;SDS011;51992;53.528;49.474;2024-02-23T14:14:11;4.75;;;1.30;;
65387;SDS011;51992;53.528;49.474;2024-02-23T14:16:37;0.40;;;0.40;;
65387;SDS011;51992;53.528;49.474;2024-02-23T14:19:03;0.68;;;0.68;;
65387;SDS011;51992;53.528;49.474;2024-02-23T14:21:29;1.45;;;1.13;;
65387;SDS011;51992;53.528;49.474;2024-02-23T14:23:55;0.93;;;0.93;;
65387;SDS011;51992;53.528;49.474;2024-02-23T14:26:21;0.70;;;0.68;;
65387;SDS011;51992;53.528;49.474;2024-02-23T14:28:47;1.35;;;1.23;;